sensor_id;sensor_type;location;lat;lon;timestamp;pressure;altitude;pressure_sealevel;temperature;humidity
12219;BME280;6172;42.646;23.344;2023-03-04T00:00:01;94666.38;;;4.03;100.00
12219;BME280;6172;42.646;23.344;2023-03-04T00:02:30;94656.34;;;4.04;100.00
12219;BME280;6172;42.646;23.344;2023-03-04T00:04:56;94661.31;;;3.98;100.00
12219;BME280;6172;42.646;23.344;2023-03-04T00:07:23;94671.25;;;3.91;100.00
12219;BME280;6172;42.646;23.344;2023-03-04T00:09:50;94656.66;;;3.95;100.00
12219;BME280;6172;42.646;23.344;2023-03-04T00:12:17;94653.66;;;4.04;100.00
12219;BME280;6172;42.646;23.344;2023-03-04T00:14:44;94658.25;;;4.00;100.00
12219;BME280;6172;42.646;23.344;2023-03-04T00:17:11;94654.72;;;3.92;100.00
12219;BME280;6172;42.646;23.344;2023-03-04T00:19:39;94647.72;;;3.84;100.00
12219;BME280;6172;42.646;23.344;2023-03-04T00:22:06;94636.25;;;3.94;100.00
12219;BME280;6172;42.646;23.344;2023-03-04T00:24:33;94660.16;;;3.99;100.00
12219;BME280;6172;42.646;23.344;2023-03-04T00:27:01;94651.22;;;3.88;100.00
12219;BME280;6172;42.646;23.344;2023-03-04T00:29:28;94648.94;;;3.94;100.00
12219;BME280;6172;42.646;23.344;2023-03-04T00:31:55;94651.19;;;3.85;100.00
12219;BME280;6172;42.646;23.344;2023-03-04T00:34:23;94652.81;;;3.93;100.00
12219;BME280;6172;42.646;23.344;2023-03-04T00:36:51;94651.56;;;3.83;100.00
12219;BME280;6172;42.646;23.344;2023-03-04T00:39:19;94647.34;;;3.86;100.00
12219;BME280;6172;42.646;23.344;2023-03-04T00:41:46;94646.09;;;3.76;100.00
12219;BME280;6172;42.646;23.344;2023-03-04T00:44:13;94650.00;;;3.79;100.00
12219;BME280;6172;42.646;23.344;2023-03-04T00:46:39;94651.03;;;3.67;100.00
12219;BME280;6172;42.646;23.344;2023-03-04T00:49:08;94651.56;;;3.83;100.00
12219;BME280;6172;42.646;23.344;2023-03-04T00:51:34;94640.06;;;3.90;100.00
12219;BME280;6172;42.646;23.344;2023-03-04T00:54:03;94648.94;;;3.94;100.00
12219;BME280;6172;42.646;23.344;2023-03-04T00:56:30;94642.28;;;3.77;100.00
12219;BME280;6172;42.646;23.344;2023-03-04T00:58:59;94639.28;;;3.89;100.00
12219;BME280;6172;42.646;23.344;2023-03-04T01:01:26;94641.66;;;3.94;100.00
12219;BME280;6172;42.646;23.344;2023-03-04T01:03:53;94649.38;;;3.99;100.00
12219;BME280;6172;42.646;23.344;2023-03-04T01:06:20;94651.66;;;3.94;100.00
12219;BME280;6172;42.646;23.344;2023-03-04T01:08:47;94643.25;;;4.02;100.00
12219;BME280;6172;42.646;23.344;2023-03-04T01:11:15;94632.63;;;4.20;100.00
12219;BME280;6172;42.646;23.344;2023-03-04T01:13:42;94638.06;;;4.23;100.00
12219;BME280;6172;42.646;23.344;2023-03-04T01:16:09;94634.84;;;4.11;100.00
12219;BME280;6172;42.646;23.344;2023-03-04T01:18:37;94630.13;;;4.01;100.00
12219;BME280;6172;42.646;23.344;2023-03-04T01:21:05;94627.09;;;4.06;100.00
12219;BME280;6172;42.646;23.344;2023-03-04T01:23:32;94618.59;;;4.04;100.00
12219;BME280;6172;42.646;23.344;2023-03-04T01:25:59;94622.50;;;4.06;100.00
12219;BME280;6172;42.646;23.344;2023-03-04T01:28:27;94620.97;;;4.09;100.00
12219;BME280;6172;42.646;23.344;2023-03-04T01:30:55;94618.41;;;4.23;100.00
12219;BME280;6172;42.646;23.344;2023-03-04T01:33:22;94613.25;;;4.11;100.00
12219;BME280;6172;42.646;23.344;2023-03-04T01:35:49;94612.47;;;4.03;100.00
12219;BME280;6172;42.646;23.344;2023-03-04T01:38:16;94601.53;;;3.86;100.00
12219;BME280;6172;42.646;23.344;2023-03-04T01:40:43;94607.75;;;3.93;100.00
12219;BME280;6172;42.646;23.344;2023-03-04T01:43:15;94607.41;;;3.98;100.00
12219;BME280;6172;42.646;23.344;2023-03-04T01:45:46;94602.75;;;3.95;100.00
12219;BME280;6172;42.646;23.344;2023-03-04T01:48:15;94597.72;;;3.90;100.00
12219;BME280;6172;42.646;23.344;2023-03-04T01:50:44;94598.09;;;3.92;100.00
12219;BME280;6172;42.646;23.344;2023-03-04T01:53:16;94598.16;;;3.99;100.00
12219;BME280;6172;42.646;23.344;2023-03-04T01:55:45;94603.16;;;4.01;100.00
12219;BME280;6172;42.646;23.344;2023-03-04T01:58:12;94598.13;;;3.96;100.00
12219;BME280;6172;42.646;23.344;2023-03-04T02:00:40;94596.06;;;3.79;100.00
12219;BME280;6172;42.646;23.344;2023-03-04T02:03:10;94604.59;;;3.84;100.00
12219;BME280;6172;42.646;23.344;2023-03-04T02:05:43;94597.19;;;3.74;100.00
12219;BME280;6172;42.646;23.344;2023-03-04T02:08:29;94601.47;;;3.79;100.00
12219;BME280;6172;42.646;23.344;2023-03-04T02:10:56;94601.41;;;3.72;100.00
12219;BME280;6172;42.646;23.344;2023-03-04T02:13:23;94597.66;;;3.87;100.00
12219;BME280;6172;42.646;23.344;2023-03-04T02:15:51;94595.38;;;3.89;100.00
12219;BME280;6172;42.646;23.344;2023-03-04T02:18:21;94594.50;;;3.78;100.00
12219;BME280;6172;42.646;23.344;2023-03-04T02:20:54;94588.78;;;3.83;100.00
12219;BME280;6172;42.646;23.344;2023-03-04T02:23:25;94582.88;;;3.67;100.00
12219;BME280;6172;42.646;23.344;2023-03-04T02:26:19;94596.13;;;3.86;100.00
12219;BME280;6172;42.646;23.344;2023-03-04T02:28:48;94591.53;;;3.86;100.00
12219;BME280;6172;42.646;23.344;2023-03-04T02:31:22;94591.06;;;3.77;100.00
12219;BME280;6172;42.646;23.344;2023-03-04T02:33:51;94590.69;;;3.82;100.00
12219;BME280;6172;42.646;23.344;2023-03-04T02:36:18;94590.97;;;3.67;100.00
12219;BME280;6172;42.646;23.344;2023-03-04T02:38:45;94585.19;;;3.65;100.00
12219;BME280;6172;42.646;23.344;2023-03-04T02:41:16;94594.34;;;3.57;100.00
12219;BME280;6172;42.646;23.344;2023-03-04T02:43:50;94587.84;;;3.61;100.00
12219;BME280;6172;42.646;23.344;2023-03-04T02:46:17;94581.84;;;3.82;100.00
12219;BME280;6172;42.646;23.344;2023-03-04T02:48:44;94572.94;;;3.74;100.00
12219;BME280;6172;42.646;23.344;2023-03-04T02:51:12;94576.00;;;3.73;100.00
12219;BME280;6172;42.646;23.344;2023-03-04T02:53:39;94577.94;;;3.76;100.00
12219;BME280;6172;42.646;23.344;2023-03-04T02:56:06;94577.47;;;3.67;100.00
12219;BME280;6172;42.646;23.344;2023-03-04T02:58:33;94579.03;;;3.68;100.00
12219;BME280;6172;42.646;23.344;2023-03-04T03:01:05;94576.31;;;3.64;100.00
12219;BME280;6172;42.646;23.344;2023-03-04T03:03:33;94573.31;;;3.73;100.00
12219;BME280;6172;42.646;23.344;2023-03-04T03:06:03;94573.31;;;3.76;100.00
12219;BME280;6172;42.646;23.344;2023-03-04T03:08:30;94573.06;;;3.92;100.00
12219;BME280;6172;42.646;23.344;2023-03-04T03:10:57;94575.03;;;3.95;100.00
12219;BME280;6172;42.646;23.344;2023-03-04T03:13:24;94574.56;;;3.89;100.00
12219;BME280;6172;42.646;23.344;2023-03-04T03:15:53;94569.19;;;3.89;100.00
12219;BME280;6172;42.646;23.344;2023-03-04T03:18:26;94564.59;;;3.90;100.00
12219;BME280;6172;42.646;23.344;2023-03-04T03:20:52;94569.22;;;3.93;100.00
12219;BME280;6172;42.646;23.344;2023-03-04T03:23:19;94581.38;;;3.73;100.00
12219;BME280;6172;42.646;23.344;2023-03-04T03:25:46;94569.91;;;3.83;100.00
12219;BME280;6172;42.646;23.344;2023-03-04T03:28:13;94567.50;;;3.67;100.00
12219;BME280;6172;42.646;23.344;2023-03-04T03:30:40;94566.03;;;3.37;100.00
12219;BME280;6172;42.646;23.344;2023-03-04T03:33:07;94571.63;;;3.17;100.00
12219;BME280;6172;42.646;23.344;2023-03-04T03:35:36;94571.56;;;3.10;100.00
12219;BME280;6172;42.646;23.344;2023-03-04T03:38:03;94577.28;;;3.05;100.00
12219;BME280;6172;42.646;23.344;2023-03-04T03:40:31;94573.50;;;3.13;100.00
12219;BME280;6172;42.646;23.344;2023-03-04T03:42:58;94573.25;;;3.25;100.00
12219;BME280;6172;42.646;23.344;2023-03-04T03:45:24;94575.59;;;3.30;100.00
12219;BME280;6172;42.646;23.344;2023-03-04T03:47:51;94562.19;;;3.37;100.00
12219;BME280;6172;42.646;23.344;2023-03-04T03:50:18;94564.97;;;3.45;100.00
12219;BME280;6172;42.646;23.344;2023-03-04T03:52:48;94566.78;;;3.33;100.00
12219;BME280;6172;42.646;23.344;2023-03-04T03:55:15;94560.28;;;3.38;100.00
12219;BME280;6172;42.646;23.344;2023-03-04T03:57:42;94559.84;;;3.33;100.00
12219;BME280;6172;42.646;23.344;2023-03-04T04:00:10;94557.66;;;3.45;100.00
12219;BME280;6172;42.646;23.344;2023-03-04T04:02:37;94559.19;;;3.43;100.00
12219;BME280;6172;42.646;23.344;2023-03-04T04:05:06;94552.22;;;3.38;100.00
12219;BME280;6172;42.646;23.344;2023-03-04T04:07:35;94553.31;;;3.33;100.00
12219;BME280;6172;42.646;23.344;2023-03-04T04:10:04;94556.75;;;3.30;100.00
12219;BME280;6172;42.646;23.344;2023-03-04T04:12:31;94560.59;;;3.29;100.00
12219;BME280;6172;42.646;23.344;2023-03-04T04:14:58;94556.69;;;3.23;100.00
12219;BME280;6172;42.646;23.344;2023-03-04T04:17:25;94556.28;;;3.21;100.00
12219;BME280;6172;42.646;23.344;2023-03-04T04:19:52;94544.06;;;3.31;100.00
12219;BME280;6172;42.646;23.344;2023-03-04T04:22:19;94549.75;;;3.22;100.00
12219;BME280;6172;42.646;23.344;2023-03-04T04:24:47;94550.50;;;3.19;100.00
12219;BME280;6172;42.646;23.344;2023-03-04T04:27:15;94552.38;;;3.15;100.00
12219;BME280;6172;42.646;23.344;2023-03-04T04:29:42;94551.91;;;3.06;100.00
12219;BME280;6172;42.646;23.344;2023-03-04T04:32:09;94555.31;;;3.03;100.00
12219;BME280;6172;42.646;23.344;2023-03-04T04:34:37;94556.13;;;3.07;100.00
12219;BME280;6172;42.646;23.344;2023-03-04T04:37:04;94554.88;;;2.98;100.00
12219;BME280;6172;42.646;23.344;2023-03-04T04:39:31;94555.75;;;3.05;100.00
12219;BME280;6172;42.646;23.344;2023-03-04T04:41:58;94553.06;;;3.05;100.00
12219;BME280;6172;42.646;23.344;2023-03-04T04:44:27;94553.06;;;3.09;100.00
12219;BME280;6172;42.646;23.344;2023-03-04T04:46:54;94545.38;;;3.07;100.00
12219;BME280;6172;42.646;23.344;2023-03-04T04:49:21;94548.69;;;2.94;100.00
12219;BME280;6172;42.646;23.344;2023-03-04T04:51:48;94552.59;;;2.67;100.00
12219;BME280;6172;42.646;23.344;2023-03-04T04:54:15;94550.44;;;2.79;100.00
12219;BME280;6172;42.646;23.344;2023-03-04T04:56:42;94551.34;;;2.90;100.00
12219;BME280;6172;42.646;23.344;2023-03-04T04:59:09;94561.38;;;2.93;100.00
12219;BME280;6172;42.646;23.344;2023-03-04T05:01:38;94553.28;;;2.93;100.00
12219;BME280;6172;42.646;23.344;2023-03-04T05:04:05;94568.22;;;2.54;100.00
12219;BME280;6172;42.646;23.344;2023-03-04T05:06:32;94559.41;;;2.57;100.00
12219;BME280;6172;42.646;23.344;2023-03-04T05:09:00;94571.06;;;2.68;100.00
12219;BME280;6172;42.646;23.344;2023-03-04T05:11:27;94574.41;;;2.58;100.00
12219;BME280;6172;42.646;23.344;2023-03-04T05:13:54;94581.41;;;2.37;100.00
12219;BME280;6172;42.646;23.344;2023-03-04T05:16:21;94580.34;;;2.15;100.00
12219;BME280;6172;42.646;23.344;2023-03-04T05:18:49;94575.69;;;2.12;100.00
12219;BME280;6172;42.646;23.344;2023-03-04T05:21:16;94583.53;;;2.21;100.00
12219;BME280;6172;42.646;23.344;2023-03-04T05:23:43;94589.09;;;2.35;100.00
12219;BME280;6172;42.646;23.344;2023-03-04T05:26:12;94586.41;;;2.35;100.00
12219;BME280;6172;42.646;23.344;2023-03-04T05:28:40;94589.84;;;2.35;100.00
12219;BME280;6172;42.646;23.344;2023-03-04T05:31:06;94594.19;;;2.43;100.00
12219;BME280;6172;42.646;23.344;2023-03-04T05:33:33;94599.59;;;2.47;100.00
12219;BME280;6172;42.646;23.344;2023-03-04T05:36:02;94603.91;;;2.25;100.00
12219;BME280;6172;42.646;23.344;2023-03-04T05:38:30;94605.06;;;2.24;100.00
12219;BME280;6172;42.646;23.344;2023-03-04T05:40:58;94608.28;;;2.33;100.00
12219;BME280;6172;42.646;23.344;2023-03-04T05:43:26;94602.84;;;2.30;100.00
12219;BME280;6172;42.646;23.344;2023-03-04T05:45:54;94604.50;;;2.38;100.00
12219;BME280;6172;42.646;23.344;2023-03-04T05:48:21;94607.59;;;2.40;100.00
12219;BME280;6172;42.646;23.344;2023-03-04T05:50:52;94603.91;;;2.51;100.00
12219;BME280;6172;42.646;23.344;2023-03-04T05:53:21;94603.34;;;2.68;100.00
12219;BME280;6172;42.646;23.344;2023-03-04T05:55:48;94607.19;;;2.67;100.00
12219;BME280;6172;42.646;23.344;2023-03-04T05:58:15;94605.00;;;2.76;100.00
12219;BME280;6172;42.646;23.344;2023-03-04T06:00:44;94613.38;;;2.71;100.00
12219;BME280;6172;42.646;23.344;2023-03-04T06:03:15;94613.38;;;2.71;100.00
12219;BME280;6172;42.646;23.344;2023-03-04T06:05:43;94609.03;;;2.93;100.00
12219;BME280;6172;42.646;23.344;2023-03-04T06:08:11;94612.97;;;2.99;100.00
12219;BME280;6172;42.646;23.344;2023-03-04T06:10:40;94612.34;;;3.12;100.00
12219;BME280;6172;42.646;23.344;2023-03-04T06:13:07;94613.09;;;3.09;100.00
12219;BME280;6172;42.646;23.344;2023-03-04T06:15:34;94612.44;;;3.19;100.00
12219;BME280;6172;42.646;23.344;2023-03-04T06:18:02;94616.94;;;3.08;100.00
12219;BME280;6172;42.646;23.344;2023-03-04T06:20:28;94611.44;;;3.01;100.00
12219;BME280;6172;42.646;23.344;2023-03-04T06:22:55;94618.41;;;3.06;100.00
12219;BME280;6172;42.646;23.344;2023-03-04T06:25:23;94619.44;;;3.27;100.00
12219;BME280;6172;42.646;23.344;2023-03-04T06:27:52;94616.28;;;3.22;100.00
12219;BME280;6172;42.646;23.344;2023-03-04T06:30:19;94620.28;;;3.35;100.00
12219;BME280;6172;42.646;23.344;2023-03-04T06:32:46;94619.59;;;3.42;100.00
12219;BME280;6172;42.646;23.344;2023-03-04T06:35:16;94617.44;;;3.58;100.00
12219;BME280;6172;42.646;23.344;2023-03-04T06:37:43;94613.78;;;3.80;100.00
12219;BME280;6172;42.646;23.344;2023-03-04T06:40:11;94622.13;;;3.68;100.00
12219;BME280;6172;42.646;23.344;2023-03-04T06:42:39;94615.75;;;3.83;100.00
12219;BME280;6172;42.646;23.344;2023-03-04T06:45:11;94625.13;;;3.56;100.00
12219;BME280;6172;42.646;23.344;2023-03-04T06:47:38;94623.84;;;3.43;100.00
12219;BME280;6172;42.646;23.344;2023-03-04T06:50:06;94628.75;;;3.33;100.00
12219;BME280;6172;42.646;23.344;2023-03-04T06:52:33;94632.78;;;3.50;100.00
12219;BME280;6172;42.646;23.344;2023-03-04T06:55:00;94629.44;;;3.64;100.00
12219;BME280;6172;42.646;23.344;2023-03-04T06:57:27;94633.88;;;3.46;100.00
12219;BME280;6172;42.646;23.344;2023-03-04T06:59:54;94631.84;;;3.36;100.00
12219;BME280;6172;42.646;23.344;2023-03-04T07:02:23;94632.06;;;3.57;100.00
12219;BME280;6172;42.646;23.344;2023-03-04T07:04:50;94644.91;;;3.70;100.00
12219;BME280;6172;42.646;23.344;2023-03-04T07:07:17;94625.38;;;3.84;100.00
12219;BME280;6172;42.646;23.344;2023-03-04T07:09:44;94625.03;;;3.89;100.00
12219;BME280;6172;42.646;23.344;2023-03-04T07:12:11;94629.59;;;3.81;100.00
12219;BME280;6172;42.646;23.344;2023-03-04T07:14:39;94621.56;;;3.85;100.00
12219;BME280;6172;42.646;23.344;2023-03-04T07:17:06;94628.47;;;3.86;100.00
12219;BME280;6172;42.646;23.344;2023-03-04T07:19:35;94639.59;;;3.81;100.00
12219;BME280;6172;42.646;23.344;2023-03-04T07:22:02;94623.56;;;3.55;100.00
12219;BME280;6172;42.646;23.344;2023-03-04T07:24:29;94642.94;;;3.30;100.00
12219;BME280;6172;42.646;23.344;2023-03-04T07:26:56;94649.41;;;3.22;100.00
12219;BME280;6172;42.646;23.344;2023-03-04T07:29:23;94644.59;;;3.42;100.00
12219;BME280;6172;42.646;23.344;2023-03-04T07:31:50;94635.00;;;3.45;100.00
12219;BME280;6172;42.646;23.344;2023-03-04T07:34:17;94640.81;;;3.47;100.00
12219;BME280;6172;42.646;23.344;2023-03-04T07:36:46;94650.50;;;3.55;100.00
12219;BME280;6172;42.646;23.344;2023-03-04T07:39:13;94630.09;;;3.54;100.00
12219;BME280;6172;42.646;23.344;2023-03-04T07:41:40;94636.75;;;3.63;100.00
12219;BME280;6172;42.646;23.344;2023-03-04T07:44:10;94649.94;;;3.75;100.00
12219;BME280;6172;42.646;23.344;2023-03-04T07:46:39;94620.50;;;3.56;100.00
12219;BME280;6172;42.646;23.344;2023-03-04T07:49:06;94634.44;;;3.65;100.00
12219;BME280;6172;42.646;23.344;2023-03-04T07:51:33;94638.41;;;3.75;100.00
12219;BME280;6172;42.646;23.344;2023-03-04T07:54:03;94626.91;;;3.45;100.00
12219;BME280;6172;42.646;23.344;2023-03-04T07:56:32;94632.69;;;3.83;100.00
12219;BME280;6172;42.646;23.344;2023-03-04T07:59:00;94630.69;;;3.77;100.00
12219;BME280;6172;42.646;23.344;2023-03-04T08:01:32;94621.56;;;3.88;100.00
12219;BME280;6172;42.646;23.344;2023-03-04T08:04:02;94610.31;;;3.79;100.00
12219;BME280;6172;42.646;23.344;2023-03-04T08:06:30;94628.59;;;4.00;100.00
12219;BME280;6172;42.646;23.344;2023-03-04T08:08:59;94629.44;;;4.07;100.00
12219;BME280;6172;42.646;23.344;2023-03-04T08:11:29;94620.41;;;4.33;100.00
12219;BME280;6172;42.646;23.344;2023-03-04T08:13:56;94620.34;;;4.26;100.00
12219;BME280;6172;42.646;23.344;2023-03-04T08:16:24;94621.97;;;4.37;100.00
12219;BME280;6172;42.646;23.344;2023-03-04T08:18:55;94624.41;;;4.60;100.00
12219;BME280;6172;42.646;23.344;2023-03-04T08:21:24;94619.94;;;4.88;100.00
12219;BME280;6172;42.646;23.344;2023-03-04T08:23:52;94625.38;;;4.92;100.00
12219;BME280;6172;42.646;23.344;2023-03-04T08:26:23;94617.00;;;5.18;100.00
12219;BME280;6172;42.646;23.344;2023-03-04T08:29:05;94613.94;;;5.30;100.00
12219;BME280;6172;42.646;23.344;2023-03-04T08:31:33;94618.09;;;5.03;100.00
12219;BME280;6172;42.646;23.344;2023-03-04T08:34:01;94611.47;;;4.90;100.00
12219;BME280;6172;42.646;23.344;2023-03-04T08:36:28;94600.59;;;4.72;100.00
12219;BME280;6172;42.646;23.344;2023-03-04T08:38:55;94606.91;;;5.01;100.00
12219;BME280;6172;42.646;23.344;2023-03-04T08:41:23;94603.69;;;4.74;100.00
12219;BME280;6172;42.646;23.344;2023-03-04T08:43:52;94592.44;;;4.65;100.00
12219;BME280;6172;42.646;23.344;2023-03-04T08:46:21;94606.13;;;5.00;100.00
12219;BME280;6172;42.646;23.344;2023-03-04T08:48:48;94601.31;;;4.62;100.00
12219;BME280;6172;42.646;23.344;2023-03-04T08:51:15;94599.38;;;4.59;100.00
12219;BME280;6172;42.646;23.344;2023-03-04T08:53:42;94602.28;;;5.05;100.00
12219;BME280;6172;42.646;23.344;2023-03-04T08:56:10;94605.44;;;5.21;100.00
12219;BME280;6172;42.646;23.344;2023-03-04T08:58:37;94588.53;;;5.55;100.00
12219;BME280;6172;42.646;23.344;2023-03-04T09:01:09;94591.66;;;5.86;100.00
12219;BME280;6172;42.646;23.344;2023-03-04T09:03:41;94576.84;;;5.20;100.00
12219;BME280;6172;42.646;23.344;2023-03-04T09:06:11;94588.09;;;5.36;100.00
12219;BME280;6172;42.646;23.344;2023-03-04T09:08:40;94588.47;;;5.41;100.00
12219;BME280;6172;42.646;23.344;2023-03-04T09:11:08;94588.91;;;5.54;100.00
12219;BME280;6172;42.646;23.344;2023-03-04T09:13:36;94577.63;;;5.13;100.00
12219;BME280;6172;42.646;23.344;2023-03-04T09:16:08;94579.25;;;5.42;100.00
12219;BME280;6172;42.646;23.344;2023-03-04T09:18:38;94576.16;;;5.37;100.00
12219;BME280;6172;42.646;23.344;2023-03-04T09:21:05;94573.06;;;5.63;100.00
12219;BME280;6172;42.646;23.344;2023-03-04T09:23:33;94575.41;;;5.47;100.00
12219;BME280;6172;42.646;23.344;2023-03-04T09:26:00;94574.16;;;5.23;100.00
12219;BME280;6172;42.646;23.344;2023-03-04T09:28:28;94579.56;;;5.16;100.00
12219;BME280;6172;42.646;23.344;2023-03-04T09:30:55;94578.06;;;5.29;100.00
12219;BME280;6172;42.646;23.344;2023-03-04T09:33:22;94573.44;;;5.40;100.00
12219;BME280;6172;42.646;23.344;2023-03-04T09:35:50;94561.09;;;5.53;100.00
12219;BME280;6172;42.646;23.344;2023-03-04T09:38:18;94559.97;;;6.04;100.00
12219;BME280;6172;42.646;23.344;2023-03-04T09:40:47;94555.31;;;6.11;100.00
12219;BME280;6172;42.646;23.344;2023-03-04T09:43:18;94561.53;;;5.87;100.00
12219;BME280;6172;42.646;23.344;2023-03-04T09:45:49;94554.94;;;6.06;100.00
12219;BME280;6172;42.646;23.344;2023-03-04T09:48:20;94557.59;;;6.41;100.00
12219;BME280;6172;42.646;23.344;2023-03-04T09:50:59;94552.53;;;6.50;100.00
12219;BME280;6172;42.646;23.344;2023-03-04T09:53:36;94543.66;;;6.42;100.00
12219;BME280;6172;42.646;23.344;2023-03-04T09:56:06;94549.09;;;6.53;100.00
12219;BME280;6172;42.646;23.344;2023-03-04T09:58:42;94548.31;;;6.52;100.00
12219;BME280;6172;42.646;23.344;2023-03-04T10:01:19;94530.09;;;6.70;100.00
12219;BME280;6172;42.646;23.344;2023-03-04T10:03:53;94546.72;;;6.65;100.00
12219;BME280;6172;42.646;23.344;2023-03-04T10:06:23;94536.66;;;6.76;100.00
12219;BME280;6172;42.646;23.344;2023-03-04T10:08:55;94521.25;;;6.59;100.00
12219;BME280;6172;42.646;23.344;2023-03-04T10:11:31;94525.44;;;6.78;100.00
12219;BME280;6172;42.646;23.344;2023-03-04T10:16:53;94523.94;;;6.56;100.00
12219;BME280;6172;42.646;23.344;2023-03-04T10:19:29;94515.06;;;6.52;100.00
12219;BME280;6172;42.646;23.344;2023-03-04T10:21:58;94513.53;;;6.40;100.00
12219;BME280;6172;42.646;23.344;2023-03-04T10:24:27;94518.56;;;6.42;100.00
12219;BME280;6172;42.646;23.344;2023-03-04T10:26:59;94514.59;;;6.74;100.00
12219;BME280;6172;42.646;23.344;2023-03-04T10:29:29;94502.59;;;6.75;100.00
12219;BME280;6172;42.646;23.344;2023-03-04T10:31:58;94500.97;;;6.88;100.00
12219;BME280;6172;42.646;23.344;2023-03-04T10:34:25;94499.91;;;6.68;100.00
12219;BME280;6172;42.646;23.344;2023-03-04T10:36:59;94496.03;;;6.76;100.00
12219;BME280;6172;42.646;23.344;2023-03-04T10:39:29;94499.56;;;6.49;100.00
12219;BME280;6172;42.646;23.344;2023-03-04T10:41:59;94489.38;;;6.91;100.00
12219;BME280;6172;42.646;23.344;2023-03-04T10:44:27;94487.63;;;7.25;100.00
12219;BME280;6172;42.646;23.344;2023-03-04T10:46:56;94485.97;;;7.38;100.00
12219;BME280;6172;42.646;23.344;2023-03-04T10:49:25;94475.09;;;7.45;100.00
12219;BME280;6172;42.646;23.344;2023-03-04T10:51:54;94474.53;;;7.13;100.00
12219;BME280;6172;42.646;23.344;2023-03-04T10:54:30;94461.34;;;7.19;100.00
12219;BME280;6172;42.646;23.344;2023-03-04T10:57:03;94465.94;;;7.25;100.00
12219;BME280;6172;42.646;23.344;2023-03-04T10:59:43;94464.25;;;7.45;100.00
12219;BME280;6172;42.646;23.344;2023-03-04T11:02:23;94459.19;;;7.47;100.00
12219;BME280;6172;42.646;23.344;2023-03-04T11:04:56;94449.63;;;7.32;100.00
12219;BME280;6172;42.646;23.344;2023-03-04T11:07:30;94451.56;;;7.35;100.00
12219;BME280;6172;42.646;23.344;2023-03-04T11:10:09;94448.00;;;7.45;100.00
12219;BME280;6172;42.646;23.344;2023-03-04T11:12:36;94436.78;;;7.43;100.00
12219;BME280;6172;42.646;23.344;2023-03-04T11:15:17;94434.22;;;7.22;100.00
12219;BME280;6172;42.646;23.344;2023-03-04T11:17:47;94435.69;;;7.30;100.00
12219;BME280;6172;42.646;23.344;2023-03-04T11:20:22;94436.34;;;6.90;100.00
12219;BME280;6172;42.646;23.344;2023-03-04T11:22:51;94428.06;;;7.15;100.00
12219;BME280;6172;42.646;23.344;2023-03-04T11:25:28;94424.97;;;7.16;100.00
12219;BME280;6172;42.646;23.344;2023-03-04T11:27:59;94420.19;;;7.34;100.00
12219;BME280;6172;42.646;23.344;2023-03-04T11:30:38;94407.06;;;7.26;100.00
12219;BME280;6172;42.646;23.344;2023-03-04T11:33:20;94398.72;;;7.03;100.00
12219;BME280;6172;42.646;23.344;2023-03-04T11:36:01;94411.03;;;7.14;100.00
12219;BME280;6172;42.646;23.344;2023-03-04T11:38:33;94409.50;;;7.13;100.00
12219;BME280;6172;42.646;23.344;2023-03-04T11:41:09;94407.81;;;7.33;100.00
12219;BME280;6172;42.646;23.344;2023-03-04T11:43:38;94405.66;;;7.07;100.00
12219;BME280;6172;42.646;23.344;2023-03-04T11:46:49;94397.16;;;7.05;100.00
12219;BME280;6172;42.646;23.344;2023-03-04T11:49:49;94400.47;;;7.27;100.00
12219;BME280;6172;42.646;23.344;2023-03-04T11:52:31;94386.28;;;7.12;100.00
12219;BME280;6172;42.646;23.344;2023-03-04T11:55:17;94386.91;;;7.34;100.00
12219;BME280;6172;42.646;23.344;2023-03-04T11:57:58;94389.69;;;7.20;100.00
12219;BME280;6172;42.646;23.344;2023-03-04T12:00:37;94384.59;;;7.32;100.00
12219;BME280;6172;42.646;23.344;2023-03-04T12:03:35;94382.34;;;7.20;100.00
12219;BME280;6172;42.646;23.344;2023-03-04T12:06:11;94375.34;;;7.26;100.00
12219;BME280;6172;42.646;23.344;2023-03-04T12:08:52;94379.25;;;7.18;100.00
12219;BME280;6172;42.646;23.344;2023-03-04T12:11:28;94376.88;;;7.27;100.00
12219;BME280;6172;42.646;23.344;2023-03-04T12:14:23;94370.22;;;7.35;100.00
12219;BME280;6172;42.646;23.344;2023-03-04T12:17:34;94366.06;;;7.24;100.00
12219;BME280;6172;42.646;23.344;2023-03-04T12:20:15;94365.59;;;7.32;100.00
12219;BME280;6172;42.646;23.344;2023-03-04T12:22:49;94365.91;;;7.41;100.00
12219;BME280;6172;42.646;23.344;2023-03-04T12:25:38;94356.16;;;7.51;100.00
12219;BME280;6172;42.646;23.344;2023-03-04T12:28:22;94354.31;;;7.41;100.00
12219;BME280;6172;42.646;23.344;2023-03-04T12:31:18;94362.94;;;7.69;100.00
12219;BME280;6172;42.646;23.344;2023-03-04T12:33:58;94352.03;;;6.85;100.00
12219;BME280;6172;42.646;23.344;2023-03-04T12:36:34;94364.28;;;6.38;100.00
12219;BME280;6172;42.646;23.344;2023-03-04T12:39:17;94356.50;;;6.47;100.00
12219;BME280;6172;42.646;23.344;2023-03-04T12:41:59;94359.97;;;6.48;100.00
12219;BME280;6172;42.646;23.344;2023-03-04T12:44:35;94355.25;;;6.69;100.00
12219;BME280;6172;42.646;23.344;2023-03-04T12:47:19;94346.28;;;6.79;100.00
12219;BME280;6172;42.646;23.344;2023-03-04T12:50:12;94341.56;;;6.90;100.00
12219;BME280;6172;42.646;23.344;2023-03-04T12:52:54;94338.13;;;6.83;100.00
12219;BME280;6172;42.646;23.344;2023-03-04T12:55:31;94334.34;;;7.17;100.00
12219;BME280;6172;42.646;23.344;2023-03-04T12:58:01;94332.78;;;7.20;100.00
12219;BME280;6172;42.646;23.344;2023-03-04T13:00:34;94327.09;;;7.07;100.00
12219;BME280;6172;42.646;23.344;2023-03-04T13:03:11;94324.09;;;7.39;100.00
12219;BME280;6172;42.646;23.344;2023-03-04T13:06:01;94316.28;;;7.04;100.00
12219;BME280;6172;42.646;23.344;2023-03-04T13:08:36;94321.09;;;7.30;100.00
12219;BME280;6172;42.646;23.344;2023-03-04T13:14:32;94306.25;;;7.41;100.00
12219;BME280;6172;42.646;23.344;2023-03-04T13:17:01;94311.25;;;7.46;100.00
12219;BME280;6172;42.646;23.344;2023-03-04T13:20:14;94306.78;;;7.29;100.00
12219;BME280;6172;42.646;23.344;2023-03-04T13:22:52;94301.84;;;7.17;100.00